Conception, Missouri
Current Conditions -  °F | °C
As of 2:01 AM on Tuesday 21 Oct 2014 (Local Time) from KSTJ Reporting Station
Haze Haze  
Wind Chill: 39°   Ceiling: Unl
Heat Index: 39°   Visibility: 3mi
Dew Point: 37°   Wind: 0mph
Humidity: 93%   Direction: NA
Pressure: 30.09"   Gusts: NA
Location:  40.24°N, 94.69°W
Report Text: KSTJ 210701Z AUTO 00000KT 3SM R35/3000VP6000FT BR CLR 04/03 A3009 RMK AO2 T00390028
Loading
Personal Weather Stations






























Interactive Weather Map
Tropical Storm Tracking
New forecast layout! Learn more

10-Day Weather Forecast

Advertisements
Track Severe Weather on mobile